Time;durP1;ratioP1;P1;durP2;ratioP2;P2;SDS_P1;SDS_P2;PMS_P1;PMS_P2;Temp;Humidity;BMP_temperature;BMP_pressure;BME280_temperature;BME280_humidity;BME280_pressure;Samples;Min_cycle;Max_cycle;Signal;HPM_P1;HPM_P2
2023/10/21 00:01:11;;;;;;;2.70;1.50;;;;;;;14.65;95.61;97198.78;6095430;23;20033;-84
2023/10/21 00:03:38;;;;;;;9.27;2.85;;;;;;;14.63;95.59;97213.38;6071055;23;20096;-85
2023/10/21 00:06:06;;;;;;;5.05;1.40;;;;;;;14.59;95.58;97220.25;6095180;23;20448;-84
2023/10/21 00:08:33;;;;;;;1.98;1.25;;;;;;;14.59;95.17;97225.59;6095648;23;20029;-84
2023/10/21 00:11:04;;;;;;;4.85;1.65;;;;;;;14.59;95.16;97217.56;6095443;23;20033;-85
2023/10/21 00:13:32;;;;;;;2.85;1.10;;;;;;;14.58;95.10;97231.94;6119711;23;20021;-84
2023/10/21 00:15:59;;;;;;;3.38;1.27;;;;;;;14.57;95.01;97225.78;6071672;23;20331;-84
2023/10/21 00:18:26;;;;;;;2.72;1.40;;;;;;;14.57;94.98;97233.00;6094768;23;20032;-84
2023/10/21 00:20:54;;;;;;;2.33;1.15;;;;;;;14.57;94.87;97228.47;6119825;23;20024;-84
2023/10/21 00:23:22;;;;;;;1.90;1.30;;;;;;;14.57;94.67;97225.78;6143709;23;20045;-84
2023/10/21 00:25:49;;;;;;;1.50;1.30;;;;;;;14.56;94.56;97234.84;6120120;23;20387;-84
2023/10/21 00:28:16;;;;;;;4.20;1.20;;;;;;;14.57;94.46;97238.34;6094360;23;20057;-84
2023/10/21 00:30:45;;;;;;;3.33;1.40;;;;;;;14.56;94.74;97242.88;6096257;23;20027;-84
2023/10/21 00:33:15;;;;;;;2.33;1.10;;;;;;;14.56;94.46;97244.72;6095767;23;20025;-84
2023/10/21 00:35:44;;;;;;;2.17;1.10;;;;;;;14.58;94.83;97248.81;6095023;23;20104;-84
2023/10/21 00:38:12;;;;;;;0.77;0.77;;;;;;;14.59;94.97;97252.28;6095122;23;20029;-84
2023/10/21 00:40:49;;;;;;;4.30;1.13;;;;;;;14.54;94.70;97248.41;6094717;23;20021;-85
2023/10/21 00:43:39;;;;;;;3.25;1.23;;;;;;;14.52;94.14;97252.31;6070562;23;20024;-85
2023/10/21 00:46:10;;;;;;;3.25;1.20;;;;;;;14.59;94.89;97257.63;6119877;23;20129;-84
2023/10/21 00:48:40;;;;;;;3.45;1.02;;;;;;;14.58;94.91;97259.50;6118780;23;20029;-86
2023/10/21 00:51:08;;;;;;;2.10;1.25;;;;;;;14.61;94.83;97263.56;6094620;23;20021;-84
2023/10/21 00:53:37;;;;;;;2.83;1.10;;;;;;;14.61;94.83;97274.25;6119696;23;20032;-84
2023/10/21 00:56:05;;;;;;;5.13;1.33;;;;;;;14.64;95.06;97276.47;6119369;23;20021;-84
2023/10/21 00:58:33;;;;;;;2.58;0.80;;;;;;;14.63;94.79;97281.00;6070319;23;20390;-84
2023/10/21 01:01:06;;;;;;;2.95;0.98;;;;;;;14.64;94.79;97281.81;6094906;23;20029;-85
2023/10/21 01:03:34;;;;;;;0.82;0.73;;;;;;;14.64;94.76;97284.47;6071774;23;20182;-84
2023/10/21 01:06:01;;;;;;;2.72;0.95;;;;;;;14.65;94.95;97300.25;6095192;23;20358;-87
2023/10/21 01:08:28;;;;;;;0.85;0.82;;;;;;;14.67;94.73;97302.72;6118649;23;20022;-84
2023/10/21 01:10:55;;;;;;;2.97;0.80;;;;;;;14.66;94.72;97306.44;6070203;23;20356;-84
2023/10/21 01:13:23;;;;;;;2.05;0.80;;;;;;;14.68;95.08;97309.69;6094648;23;20025;-84
2023/10/21 01:15:49;;;;;;;0.68;0.60;;;;;;;14.68;95.01;97307.84;6095500;23;20037;-84
2023/10/21 01:18:16;;;;;;;2.28;1.13;;;;;;;14.70;94.83;97323.63;6071393;23;20444;-83
2023/10/21 01:20:43;;;;;;;2.40;0.90;;;;;;;14.71;94.93;97327.94;6119432;23;20029;-85
2023/10/21 01:23:16;;;;;;;0.57;0.57;;;;;;;14.69;94.69;97330.84;6095139;23;20477;-84
2023/10/21 01:25:43;;;;;;;3.20;1.25;;;;;;;14.73;94.92;97348.06;6144911;23;20047;-84
2023/10/21 01:28:10;;;;;;;3.25;0.73;;;;;;;14.75;94.88;97350.50;6094064;23;20025;-84
2023/10/21 01:30:37;;;;;;;3.35;1.40;;;;;;;14.76;94.73;97354.81;6071263;23;20442;-84
2023/10/21 01:33:04;;;;;;;2.45;0.82;;;;;;;14.77;94.88;97359.91;6071686;23;20021;-84
2023/10/21 01:35:30;;;;;;;0.60;0.50;;;;;;;14.80;94.29;97360.50;6093426;23;20075;-84
2023/10/21 01:37:57;;;;;;;0.75;0.50;;;;;;;14.81;94.20;97364.81;6094967;23;20346;-85
2023/10/21 01:40:24;;;;;;;0.55;0.40;;;;;;;14.85;94.36;97374.03;6095384;23;20093;-85
2023/10/21 01:42:52;;;;;;;0.63;0.45;;;;;;;14.86;93.92;97378.34;6069273;23;20084;-85
2023/10/21 01:45:19;;;;;;;0.80;0.45;;;;;;;14.88;93.82;97389.59;6070167;23;20098;-85
2023/10/21 01:47:45;;;;;;;0.93;0.38;;;;;;;14.88;93.64;97385.09;6095260;23;20028;-85
2023/10/21 01:50:12;;;;;;;0.50;0.50;;;;;;;14.90;93.18;97382.19;6119200;23;20018;-84
2023/10/21 01:52:40;;;;;;;0.40;0.40;;;;;;;14.89;93.40;97397.41;6094508;23;20081;-87
2023/10/21 01:55:11;;;;;;;0.52;0.40;;;;;;;14.92;93.17;97393.47;6071127;23;20450;-86
2023/10/21 01:57:38;;;;;;;1.20;0.40;;;;;;;14.93;93.45;97397.75;6071440;23;20038;-85
2023/10/21 02:00:08;;;;;;;0.93;0.32;;;;;;;14.94;93.23;97400.22;6070361;23;20021;-85
2023/10/21 02:02:39;;;;;;;0.30;0.30;;;;;;;14.95;93.10;97401.03;6119998;23;20458;-84
2023/10/21 02:05:06;;;;;;;0.40;0.32;;;;;;;14.96;92.46;97402.69;6094502;23;20412;-85
2023/10/21 02:07:37;;;;;;;1.90;0.50;;;;;;;14.95;92.29;97401.84;6118127;23;20041;-87
2023/10/21 02:10:05;;;;;;;1.45;0.40;;;;;;;14.99;92.36;97415.59;6095403;23;20026;-85
2023/10/21 02:12:32;;;;;;;1.50;0.30;;;;;;;14.96;92.03;97413.38;6070065;23;20018;-85
2023/10/21 02:14:59;;;;;;;0.40;0.40;;;;;;;15.01;92.05;97424.22;6118833;23;20033;-85
2023/10/21 02:17:26;;;;;;;0.22;0.22;;;;;;;15.03;91.61;97413.28;6094207;23;20032;-84
2023/10/21 02:19:57;;;;;;;0.75;0.20;;;;;;;15.03;91.55;97422.09;6095137;23;20076;-85
2023/10/21 02:22:24;;;;;;;1.48;0.30;;;;;;;15.05;91.65;97429.91;6094705;23;20025;-85
2023/10/21 02:24:53;;;;;;;1.13;0.30;;;;;;;15.06;91.36;97428.84;6094277;23;20026;-85
2023/10/21 02:27:20;;;;;;;0.90;0.20;;;;;;;15.08;91.45;97453.50;6093963;23;20140;-85
2023/10/21 02:29:47;;;;;;;0.30;0.30;;;;;;;15.08;91.38;97448.97;6094987;23;20037;-85
2023/10/21 02:32:14;;;;;;;1.02;0.40;;;;;;;15.09;91.08;97449.81;6070495;23;20044;-85
2023/10/21 02:34:41;;;;;;;0.30;0.30;;;;;;;15.09;90.73;97455.97;6118703;23;20021;-85
2023/10/21 02:37:08;;;;;;;0.98;0.30;;;;;;;15.11;90.87;97464.59;6092995;23;20588;-86
2023/10/21 02:39:35;;;;;;;1.45;0.40;;;;;;;15.11;90.49;97471.78;6071418;23;20353;-84
2023/10/21 02:42:02;;;;;;;0.28;0.28;;;;;;;15.12;90.12;97481.44;6087152;23;20397;-85
2023/10/21 02:44:29;;;;;;;1.60;0.20;;;;;;;15.12;90.17;97486.78;6094308;23;20732;-85
2023/10/21 02:46:56;;;;;;;0.90;0.20;;;;;;;15.13;90.24;97491.09;6096298;23;20033;-86
2023/10/21 02:49:23;;;;;;;0.98;0.20;;;;;;;15.14;90.00;97504.25;6096219;23;20072;-86
2023/10/21 02:51:49;;;;;;;0.40;0.30;;;;;;;15.13;90.10;97510.59;6096693;23;20021;-85
2023/10/21 02:54:17;;;;;;;0.30;0.30;;;;;;;15.14;89.63;97514.94;6096021;23;20109;-85
2023/10/21 02:56:44;;;;;;;1.02;0.13;;;;;;;15.14;89.53;97520.28;6096266;23;20091;-85
2023/10/21 02:59:11;;;;;;;0.32;0.30;;;;;;;15.13;89.38;97523.97;6120254;23;20109;-85
2023/10/21 03:01:38;;;;;;;1.40;0.40;;;;;;;15.15;87.91;97529.91;6097451;23;20025;-85
2023/10/21 03:04:04;;;;;;;0.30;0.30;;;;;;;15.18;88.57;97555.38;6096166;23;20350;-85
2023/10/21 03:06:31;;;;;;;1.23;0.30;;;;;;;15.20;88.34;97559.47;6096132;23;20052;-85
2023/10/21 03:08:59;;;;;;;2.80;0.25;;;;;;;15.18;88.10;97555.38;6071669;23;20022;-84
2023/10/21 03:11:26;;;;;;;1.15;0.30;;;;;;;15.16;88.27;97555.63;6096563;23;20029;-84
2023/10/21 03:13:53;;;;;;;0.75;0.30;;;;;;;15.17;88.45;97567.13;6120333;23;20068;-85
2023/10/21 03:16:19;;;;;;;0.30;0.22;;;;;;;15.15;88.79;97562.00;6120832;23;20103;-85
2023/10/21 03:18:46;;;;;;;1.02;0.38;;;;;;;15.18;88.86;97582.94;6096144;23;20462;-84
2023/10/21 03:21:13;;;;;;;0.30;0.30;;;;;;;15.18;88.77;97582.13;6120581;23;20507;-84
2023/10/21 03:23:40;;;;;;;0.35;0.35;;;;;;;15.17;89.16;97585.84;6096388;23;20025;-85
2023/10/21 03:26:07;;;;;;;1.33;0.40;;;;;;;15.16;89.34;97584.19;6120913;23;20680;-85
2023/10/21 03:28:34;;;;;;;0.95;0.30;;;;;;;15.14;89.52;97592.44;6141889;23;20104;-84
2023/10/21 03:31:05;;;;;;;0.75;0.40;;;;;;;15.14;89.46;97599.66;6095117;23;20101;-84
2023/10/21 03:33:33;;;;;;;0.68;0.30;;;;;;;15.16;89.83;97602.91;6120740;23;20029;-84
2023/10/21 03:36:02;;;;;;;0.47;0.30;;;;;;;15.15;89.93;97607.44;6096653;23;20026;-83
2023/10/21 03:38:29;;;;;;;3.00;0.38;;;;;;;15.16;90.03;97624.28;6119578;23;20039;-85
2023/10/21 03:41:03;;;;;;;0.30;0.30;;;;;;;15.13;89.73;97625.53;6072555;23;20029;-84
2023/10/21 03:43:31;;;;;;;1.65;0.40;;;;;;;15.15;90.50;97631.50;6120643;23;20018;-84
2023/10/21 03:46:01;;;;;;;0.30;0.30;;;;;;;15.16;90.26;97640.31;6096021;23;20403;-85
2023/10/21 03:48:27;;;;;;;0.30;0.30;;;;;;;15.15;90.16;97642.19;6070581;23;20070;-84
2023/10/21 03:51:05;;;;;;;0.70;0.40;;;;;;;15.12;89.98;97653.31;6095879;23;20054;-85
2023/10/21 03:53:32;;;;;;;0.32;0.30;;;;;;;15.16;90.41;97664.38;6144607;23;20028;-84
2023/10/21 03:56:00;;;;;;;2.60;0.70;;;;;;;15.15;90.40;97660.91;6119378;23;20481;-84
2023/10/21 03:58:28;;;;;;;1.73;1.10;;;;;;;15.15;90.35;97665.44;6119548;23;20033;-83
2023/10/21 04:00:57;;;;;;;0.98;0.77;;;;;;;15.16;89.99;97653.69;6144151;23;20323;-86
2023/10/21 04:03:25;;;;;;;1.58;0.40;;;;;;;15.15;89.93;97652.88;6096217;23;20036;-85
2023/10/21 04:05:53;;;;;;;1.23;0.55;;;;;;;15.16;89.94;97653.69;6095475;23;20014;-84
2023/10/21 04:08:20;;;;;;;0.75;0.40;;;;;;;15.16;89.98;97664.38;6094898;23;20646;-84
2023/10/21 04:10:47;;;;;;;2.92;0.70;;;;;;;15.14;89.63;97667.28;6095596;23;20056;-87
2023/10/21 04:13:14;;;;;;;2.30;0.43;;;;;;;15.14;89.85;97675.31;6119955;23;20687;-83
2023/10/21 04:15:41;;;;;;;0.63;0.38;;;;;;;15.12;89.89;97677.38;6146306;23;20017;-85
2023/10/21 04:18:09;;;;;;;0.82;0.40;;;;;;;15.12;89.48;97679.25;6094566;23;20029;-86
2023/10/21 04:20:36;;;;;;;2.20;0.40;;;;;;;15.12;89.48;97684.59;6095245;23;20017;-85
2023/10/21 04:23:03;;;;;;;0.63;0.40;;;;;;;15.10;89.37;97690.16;6095789;23;20345;-85
2023/10/21 04:25:30;;;;;;;0.90;0.43;;;;;;;15.10;89.46;97692.81;6071281;23;20057;-87
2023/10/21 04:27:57;;;;;;;1.20;0.50;;;;;;;15.10;89.52;97697.34;6119661;23;20042;-85
2023/10/21 04:30:25;;;;;;;0.80;0.30;;;;;;;15.09;89.38;97709.91;6119317;23;20041;-85
2023/10/21 04:32:52;;;;;;;2.25;0.60;;;;;;;15.07;89.59;97703.13;6095792;23;20100;-87
2023/10/21 04:35:19;;;;;;;1.38;0.50;;;;;;;15.07;89.40;97706.63;6096142;23;20021;-85
2023/10/21 04:37:46;;;;;;;1.92;0.40;;;;;;;15.08;88.89;97704.75;6119659;23;20017;-83
2023/10/21 04:40:13;;;;;;;0.45;0.40;;;;;;;15.08;88.55;97705.56;6093994;23;20030;-85
2023/10/21 04:42:40;;;;;;;1.23;0.40;;;;;;;15.09;88.60;97709.09;6048240;23;20080;-85
2023/10/21 04:45:08;;;;;;;2.35;0.40;;;;;;;15.08;88.53;97713.59;6071458;23;20092;-85
2023/10/21 04:47:35;;;;;;;0.50;0.32;;;;;;;15.09;88.65;97717.09;6095112;23;20029;-85
2023/10/21 04:50:04;;;;;;;0.80;0.50;;;;;;;15.09;88.52;97717.09;6094787;23;20033;-86
2023/10/21 04:52:31;;;;;;;2.25;0.50;;;;;;;15.10;88.42;97716.88;6071336;23;20029;-86
2023/10/21 04:54:58;;;;;;;0.93;0.70;;;;;;;15.11;88.35;97725.72;6094251;23;20092;-86
2023/10/21 04:57:25;;;;;;;0.70;0.55;;;;;;;15.10;88.70;97730.25;6068874;23;20017;-85
2023/10/21 04:59:52;;;;;;;1.05;0.55;;;;;;;15.10;88.64;97732.09;6071412;23;20022;-86
2023/10/21 05:02:20;;;;;;;1.48;0.70;;;;;;;15.10;88.64;97738.25;6071259;23;20509;-86
2023/10/21 05:04:48;;;;;;;0.60;0.50;;;;;;;15.10;88.68;97742.78;6095548;23;20025;-86
2023/10/21 05:07:16;;;;;;;0.57;0.47;;;;;;;15.09;89.00;97765.22;6094131;23;20021;-86
2023/10/21 05:09:43;;;;;;;1.50;0.63;;;;;;;15.08;89.56;97763.56;6118868;23;20025;-85
2023/10/21 05:12:10;;;;;;;0.82;0.73;;;;;;;15.07;89.72;97762.75;6118432;23;20029;-85
2023/10/21 05:14:37;;;;;;;2.38;0.70;;;;;;;15.08;89.58;97775.06;6071078;23;20405;-85
2023/10/21 05:17:05;;;;;;;2.25;0.90;;;;;;;15.08;89.16;97791.09;6094961;23;20029;-85
2023/10/21 05:19:33;;;;;;;1.70;0.60;;;;;;;15.07;89.00;97794.81;6095123;23;20036;-86
2023/10/21 05:21:59;;;;;;;0.80;0.40;;;;;;;15.09;89.15;97799.97;6071689;23;20021;-85
2023/10/21 05:24:27;;;;;;;2.78;0.93;;;;;;;15.09;89.51;97805.31;6095138;23;20457;-85
2023/10/21 05:26:54;;;;;;;1.65;0.60;;;;;;;15.09;89.33;97808.00;6046215;23;20029;-86
2023/10/21 05:29:21;;;;;;;1.08;0.50;;;;;;;15.08;89.31;97804.47;6070988;23;20443;-86
2023/10/21 05:31:49;;;;;;;0.60;0.60;;;;;;;15.10;89.64;97820.31;6095199;23;20030;-85
2023/10/21 05:34:19;;;;;;;1.05;0.40;;;;;;;15.10;89.56;97833.69;6093783;23;20029;-85
2023/10/21 05:36:46;;;;;;;1.33;0.40;;;;;;;15.08;89.47;97835.75;6095899;23;20465;-85
2023/10/21 05:39:13;;;;;;;0.52;0.52;;;;;;;15.08;89.25;97841.09;6094406;23;20351;-86
2023/10/21 05:41:41;;;;;;;1.08;0.40;;;;;;;15.07;89.51;97842.13;6083911;23;20024;-85
2023/10/21 05:44:10;;;;;;;0.57;0.50;;;;;;;15.04;89.60;97848.72;6119400;23;20079;-85
2023/10/21 05:46:37;;;;;;;1.85;0.77;;;;;;;15.05;90.18;97846.88;6095522;23;20072;-85
2023/10/21 05:49:04;;;;;;;1.83;0.80;;;;;;;15.04;90.51;97859.41;6118745;23;20029;-85
2023/10/21 05:51:31;;;;;;;2.63;1.13;;;;;;;15.04;90.87;97871.97;6094427;23;20446;-85
2023/10/21 05:53:59;;;;;;;2.30;1.70;;;;;;;15.03;91.10;97871.13;6094774;23;20068;-86
2023/10/21 05:56:26;;;;;;;5.70;2.25;;;;;;;15.02;91.22;97874.84;6117997;23;20037;-85
2023/10/21 05:58:53;;;;;;;1.10;1.00;;;;;;;15.03;91.22;97878.31;6119751;23;20492;-85
2023/10/21 06:01:19;;;;;;;1.05;0.80;;;;;;;15.02;91.20;97884.72;6095086;23;20026;-85
2023/10/21 06:03:46;;;;;;;1.52;0.70;;;;;;;15.01;91.64;97894.59;6119099;23;20014;-86
2023/10/21 06:06:13;;;;;;;2.35;0.80;;;;;;;14.98;91.79;97898.50;6119340;23;20041;-85
2023/10/21 06:08:40;;;;;;;2.42;1.15;;;;;;;14.98;92.12;97897.66;6143684;23;20049;-86
2023/10/21 06:11:08;;;;;;;0.60;0.50;;;;;;;14.97;92.20;97907.53;6120378;23;20041;-86
2023/10/21 06:13:35;;;;;;;7.03;1.58;;;;;;;14.94;92.09;97915.97;6142007;23;20405;-85
2023/10/21 06:16:02;;;;;;;1.00;0.90;;;;;;;14.92;92.35;97927.91;6095043;23;20037;-86
2023/10/21 06:18:30;;;;;;;3.72;1.40;;;;;;;14.89;92.22;97929.16;6118936;23;21039;-85
2023/10/21 06:20:57;;;;;;;1.70;1.60;;;;;;;14.88;92.01;97945.38;6116873;23;20056;-85
2023/10/21 06:23:24;;;;;;;8.18;2.30;;;;;;;14.86;92.05;97942.13;6092514;23;20037;-85
2023/10/21 06:25:50;;;;;;;1.98;1.25;;;;;;;14.85;92.06;97953.81;6093290;23;20021;-85
2023/10/21 06:28:18;;;;;;;3.30;1.50;;;;;;;14.84;92.18;97961.03;6116989;23;20111;-85
2023/10/21 06:30:44;;;;;;;4.03;0.90;;;;;;;14.84;92.39;97958.34;6142467;23;20092;-86
2023/10/21 06:33:11;;;;;;;4.85;1.00;;;;;;;14.83;92.38;97955.88;6117722;23;20009;-86
2023/10/21 06:35:39;;;;;;;2.92;0.65;;;;;;;14.84;92.55;97962.88;6093409;23;20025;-86
2023/10/21 06:38:06;;;;;;;1.05;0.57;;;;;;;14.84;92.40;97969.03;6119105;23;20029;-89
2023/10/21 06:40:34;;;;;;;1.42;0.40;;;;;;;14.85;92.59;97978.69;6096986;23;20048;-88
2023/10/21 06:43:23;;;;;;;1.17;0.50;;;;;;;14.85;92.21;97975.22;6101552;23;20080;-88
2023/10/21 06:45:52;;;;;;;0.98;0.52;;;;;;;14.85;91.86;97977.88;6095796;23;20124;-88
2023/10/21 06:48:19;;;;;;;1.48;0.45;;;;;;;14.85;91.43;97983.22;6095783;23;20341;-87
2023/10/21 06:50:46;;;;;;;0.43;0.43;;;;;;;14.88;91.09;97993.50;6119871;23;20017;-87
2023/10/21 06:53:12;;;;;;;1.67;0.40;;;;;;;14.87;90.88;97989.19;6118794;23;20025;-86
2023/10/21 06:55:41;;;;;;;0.60;0.52;;;;;;;14.88;90.71;97994.34;6117886;23;20705;-86
2023/10/21 06:58:09;;;;;;;2.13;0.45;;;;;;;14.91;90.42;98004.59;6118764;23;20026;-85
2023/10/21 07:00:36;;;;;;;0.85;0.50;;;;;;;14.92;90.80;98013.44;6118904;23;20013;-84
2023/10/21 07:03:03;;;;;;;1.52;0.70;;;;;;;14.93;90.00;98020.41;6093912;23;20560;-85
2023/10/21 07:05:30;;;;;;;1.10;0.90;;;;;;;14.93;89.77;98017.75;6093762;23;20512;-85
2023/10/21 07:07:57;;;;;;;0.73;0.57;;;;;;;14.93;89.83;98021.25;6116384;23;20048;-85
2023/10/21 07:10:24;;;;;;;0.82;0.70;;;;;;;14.95;89.91;98029.84;6117142;23;20068;-85
2023/10/21 07:12:53;;;;;;;0.70;0.70;;;;;;;14.96;90.27;98036.06;6092762;23;20014;-85
2023/10/21 07:15:20;;;;;;;3.08;1.00;;;;;;;14.98;90.31;98039.31;6140686;23;20599;-85
2023/10/21 07:17:46;;;;;;;4.80;0.90;;;;;;;15.00;90.06;98047.94;6117063;23;20017;-84
2023/10/21 07:20:13;;;;;;;0.77;0.52;;;;;;;15.03;90.13;98052.06;6116724;23;20029;-85
2023/10/21 07:22:46;;;;;;;1.70;0.60;;;;;;;15.03;89.94;98052.88;6117519;23;20508;-86
2023/10/21 07:25:13;;;;;;;1.15;0.70;;;;;;;15.08;90.11;98066.44;6141465;23;20400;-85
2023/10/21 07:27:39;;;;;;;2.30;0.70;;;;;;;15.08;90.05;98074.47;6116377;23;20025;-84
2023/10/21 07:30:07;;;;;;;1.70;0.57;;;;;;;15.10;90.19;98077.75;6090688;23;20025;-86
2023/10/21 07:32:34;;;;;;;2.47;0.60;;;;;;;15.13;90.31;98079.19;6093594;23;20390;-84
2023/10/21 07:35:01;;;;;;;1.58;0.60;;;;;;;15.16;90.21;98095.66;6117505;23;20458;-84
2023/10/21 07:37:28;;;;;;;1.70;1.20;;;;;;;15.21;90.24;98095.00;6117790;23;20094;-84
2023/10/21 07:39:58;;;;;;;0.80;0.70;;;;;;;15.25;90.11;98098.91;6097140;23;20025;-84
2023/10/21 07:42:25;;;;;;;0.50;0.40;;;;;;;15.32;90.07;98109.63;6120264;23;20096;-84
2023/10/21 07:44:53;;;;;;;0.90;0.60;;;;;;;15.37;90.34;98105.28;6119980;23;20029;-84
2023/10/21 07:47:20;;;;;;;2.30;0.60;;;;;;;15.42;90.13;98118.03;6142676;23;20108;-84
2023/10/21 07:49:47;;;;;;;0.68;0.60;;;;;;;15.45;90.25;98122.13;6118948;23;20028;-84
2023/10/21 07:52:14;;;;;;;2.65;0.60;;;;;;;15.47;89.92;98110.19;6094202;23;20617;-84
2023/10/21 07:54:41;;;;;;;1.48;0.50;;;;;;;15.48;89.88;98113.69;6090773;23;20836;-85
2023/10/21 07:57:08;;;;;;;1.02;0.47;;;;;;;15.49;89.76;98126.03;6094250;23;20067;-84
2023/10/21 07:59:35;;;;;;;1.63;0.43;;;;;;;15.49;89.47;98134.88;6143378;23;20028;-84
2023/10/21 08:02:02;;;;;;;0.40;0.40;;;;;;;15.49;89.45;98142.88;6120449;23;20075;-85
2023/10/21 08:04:28;;;;;;;0.93;0.75;;;;;;;15.50;89.58;98138.38;6143285;23;20013;-84
2023/10/21 08:06:55;;;;;;;0.77;0.77;;;;;;;15.51;89.38;98145.38;6118019;23;20084;-84
2023/10/21 08:09:22;;;;;;;1.17;0.60;;;;;;;15.52;89.32;98142.50;6071311;23;20036;-84
2023/10/21 08:11:49;;;;;;;0.63;0.55;;;;;;;15.54;89.33;98156.47;6093973;23;20068;-84
2023/10/21 08:14:16;;;;;;;0.65;0.60;;;;;;;15.55;89.36;98151.97;6092776;23;20018;-84
2023/10/21 08:16:46;;;;;;;1.95;0.55;;;;;;;15.55;89.33;98174.19;6073032;23;21135;-85
2023/10/21 08:19:13;;;;;;;1.65;0.60;;;;;;;15.59;89.09;98187.94;6094006;23;20105;-84
2023/10/21 08:21:40;;;;;;;1.50;0.63;;;;;;;15.60;88.94;98197.63;6116114;23;20773;-85
2023/10/21 08:24:07;;;;;;;1.50;0.68;;;;;;;15.60;88.62;98190.44;6143196;23;20072;-87
2023/10/21 08:26:37;;;;;;;0.98;0.60;;;;;;;15.55;88.28;98192.09;6093789;23;20076;-86
2023/10/21 08:29:05;;;;;;;1.10;0.63;;;;;;;15.55;88.44;98187.56;6118224;23;20084;-85
2023/10/21 08:31:33;;;;;;;2.97;0.70;;;;;;;15.57;88.29;98208.72;6141398;23;20040;-86
2023/10/21 08:33:59;;;;;;;1.65;0.60;;;;;;;15.57;88.08;98230.13;6092703;23;20022;-86
2023/10/21 08:36:26;;;;;;;5.60;0.50;;;;;;;15.55;87.55;98234.88;6093926;23;20017;-85
2023/10/21 08:38:53;;;;;;;0.40;0.40;;;;;;;15.55;87.52;98229.53;6115231;23;20021;-85
2023/10/21 08:41:21;;;;;;;0.65;0.50;;;;;;;15.54;87.54;98252.78;6116588;23;20458;-84
2023/10/21 08:43:49;;;;;;;1.38;0.47;;;;;;;15.53;86.78;98250.31;6094394;23;20449;-85
2023/10/21 08:46:17;;;;;;;3.67;0.60;;;;;;;15.51;86.37;98236.31;6116474;23;20028;-85
2023/10/21 08:48:48;;;;;;;1.08;0.70;;;;;;;15.47;85.27;98237.75;6116064;23;20021;-85
2023/10/21 08:51:21;;;;;;;1.65;0.60;;;;;;;15.44;83.90;98247.00;6116693;23;20033;-87
2023/10/21 08:53:52;;;;;;;0.40;0.40;;;;;;;15.43;83.91;98256.06;6142359;23;20029;-86
2023/10/21 08:56:19;;;;;;;3.13;0.70;;;;;;;15.46;84.42;98261.00;6141716;23;20022;-86
2023/10/21 08:58:46;;;;;;;1.60;0.70;;;;;;;15.48;84.35;98266.97;6117669;23;20053;-87
2023/10/21 09:01:15;;;;;;;3.03;0.75;;;;;;;15.51;84.22;98265.75;6143158;23;20037;-87
2023/10/21 09:03:43;;;;;;;0.82;0.45;;;;;;;15.52;84.22;98270.91;6142831;23;20057;-86
2023/10/21 09:06:11;;;;;;;2.05;0.50;;;;;;;15.57;83.60;98280.97;6116432;23;20022;-88
2023/10/21 09:08:41;;;;;;;2.20;1.08;;;;;;;15.56;83.51;98276.66;6117286;23;20021;-84
2023/10/21 09:11:13;;;;;;;1.15;0.60;;;;;;;15.59;83.14;98270.88;6141296;23;20100;-86
2023/10/21 09:13:41;;;;;;;1.10;0.50;;;;;;;15.64;83.76;98281.78;6092417;23;20599;-87
2023/10/21 09:16:29;;;;;;;0.88;0.50;;;;;;;15.58;82.23;98270.06;6080330;23;20088;-86
2023/10/21 09:19:10;;;;;;;1.05;0.47;;;;;;;15.69;83.57;98273.16;6116837;23;20025;-85
2023/10/21 09:21:41;;;;;;;1.65;0.60;;;;;;;15.72;83.40;98280.78;6093551;23;20045;-84
2023/10/21 09:24:19;;;;;;;0.88;0.63;;;;;;;15.69;82.81;98284.69;6143004;23;20021;-86
2023/10/21 09:26:47;;;;;;;2.70;0.60;;;;;;;15.72;82.74;98287.00;6141594;23;20495;-84
2023/10/21 09:29:19;;;;;;;0.50;0.50;;;;;;;15.74;82.78;98306.31;6141957;23;20018;-87
2023/10/21 09:31:56;;;;;;;1.88;0.52;;;;;;;15.75;82.35;98307.16;6118529;23;20029;-86
2023/10/21 09:34:28;;;;;;;1.88;0.80;;;;;;;15.79;82.20;98319.09;6093063;23;20013;-86
2023/10/21 09:36:57;;;;;;;1.33;0.90;;;;;;;15.79;82.58;98319.09;6093164;23;20533;-85
2023/10/21 09:39:36;;;;;;;2.00;0.60;;;;;;;15.77;82.22;98316.63;6092412;23;20354;-84
2023/10/21 09:42:05;;;;;;;0.77;0.43;;;;;;;15.81;81.72;98325.06;6118212;23;20096;-87
2023/10/21 09:44:34;;;;;;;2.10;0.70;;;;;;;15.83;81.65;98317.66;6141148;23;20084;-85
2023/10/21 09:47:05;;;;;;;0.63;0.57;;;;;;;15.81;81.64;98315.16;6117053;23;20716;-85
2023/10/21 09:49:39;;;;;;;1.88;0.68;;;;;;;15.80;81.02;98321.56;6117523;23;20040;-85
2023/10/21 09:52:14;;;;;;;1.42;0.50;;;;;;;15.80;81.11;98320.75;6091231;23;20017;-84
2023/10/21 09:55:07;;;;;;;1.48;0.47;;;;;;;15.78;78.31;98306.75;6115809;23;20642;-84
2023/10/21 09:57:36;;;;;;;1.50;0.47;;;;;;;15.89;80.37;98321.34;6115946;23;20116;-84
2023/10/21 10:00:07;;;;;;;1.85;0.47;;;;;;;15.92;80.38;98313.72;6117562;23;20112;-85
2023/10/21 10:02:36;;;;;;;1.88;0.50;;;;;;;15.94;79.74;98319.69;6071392;23;20048;-86
2023/10/21 10:05:07;;;;;;;1.63;0.40;;;;;;;15.95;79.17;98323.19;6094872;23;20041;-85
2023/10/21 10:07:36;;;;;;;1.08;0.40;;;;;;;16.00;79.36;98326.06;6092924;23;20358;-86
2023/10/21 10:10:11;;;;;;;1.25;0.50;;;;;;;16.02;79.01;98322.16;6119984;23;20394;-85
2023/10/21 10:12:41;;;;;;;3.78;0.80;;;;;;;16.04;78.29;98313.91;6092368;23;20452;-84
2023/10/21 10:15:33;;;;;;;1.35;0.40;;;;;;;16.02;76.16;98326.69;6115094;23;20044;-84
2023/10/21 10:18:08;;;;;;;0.90;0.40;;;;;;;16.06;76.19;98323.38;6142205;23;20029;-86
2023/10/21 10:20:48;;;;;;;0.88;0.50;;;;;;;16.10;76.67;98315.75;6117460;23;20402;-85
2023/10/21 10:23:15;;;;;;;1.70;0.47;;;;;;;16.16;77.30;98319.47;6118587;23;20021;-85
2023/10/21 10:25:44;;;;;;;0.82;0.63;;;;;;;16.16;77.21;98316.78;6142221;23;20025;-85
2023/10/21 10:28:21;;;;;;;2.20;0.70;;;;;;;16.14;76.04;98308.16;6091142;23;20026;-85
2023/10/21 10:30:49;;;;;;;0.75;0.50;;;;;;;16.18;76.99;98302.16;6117165;23;20028;-87
2023/10/21 10:33:23;;;;;;;3.67;0.68;;;;;;;16.16;76.03;98309.56;6117277;23;20089;-84
2023/10/21 10:35:54;;;;;;;4.82;0.57;;;;;;;16.19;75.90;98303.78;6118784;23;20643;-84
2023/10/21 10:38:27;;;;;;;1.80;0.50;;;;;;;16.23;75.72;98313.06;6142843;23;20025;-85
2023/10/21 10:41:06;;;;;;;1.13;0.60;;;;;;;16.20;74.71;98309.97;6142995;23;20516;-86
2023/10/21 10:43:44;;;;;;;1.20;0.50;;;;;;;16.28;75.40;98302.56;6119093;23;20092;-86
2023/10/21 10:46:16;;;;;;;2.45;0.43;;;;;;;16.27;74.56;98300.06;6118955;23;20076;-84
2023/10/21 10:48:43;;;;;;;3.45;0.40;;;;;;;16.32;74.89;98312.84;6117864;23;20060;-84
2023/10/21 10:51:15;;;;;;;1.20;0.63;;;;;;;16.35;74.04;98309.72;6118775;23;20041;-84
2023/10/21 10:53:56;;;;;;;1.97;0.73;;;;;;;16.32;72.47;98304.81;6095342;23;20025;-85
2023/10/21 10:56:25;;;;;;;1.00;0.50;;;;;;;16.38;72.81;98312.00;6118690;23;20013;-84
2023/10/21 10:58:52;;;;;;;1.13;0.50;;;;;;;16.40;72.22;98312.59;6117257;23;20027;-84
2023/10/21 11:01:26;;;;;;;1.05;0.57;;;;;;;16.42;72.09;98307.88;6118228;23;20029;-85
2023/10/21 11:03:58;;;;;;;2.17;0.43;;;;;;;16.42;71.31;98314.03;6117277;23;20617;-85
2023/10/21 11:06:35;;;;;;;2.40;0.50;;;;;;;16.43;70.92;98321.03;6068514;23;20022;-84
2023/10/21 11:09:16;;;;;;;1.85;0.60;;;;;;;16.49;71.00;98332.78;6145483;23;20021;-85
2023/10/21 11:11:45;;;;;;;0.93;0.60;;;;;;;16.50;71.27;98312.97;6096440;23;20041;-84
2023/10/21 11:14:24;;;;;;;1.75;0.57;;;;;;;16.52;71.08;98315.47;6099764;23;20120;-86
2023/10/21 11:16:51;;;;;;;0.85;0.50;;;;;;;16.55;70.73;98315.03;6095112;23;20593;-84
2023/10/21 11:19:18;;;;;;;18.00;8.25;;;;;;;16.64;73.46;98329.84;6143479;23;20021;-83
2023/10/21 11:21:51;;;;;;;18.27;10.20;;;;;;;16.73;77.20;98323.22;6096139;23;20100;-85
2023/10/21 11:24:22;;;;;;;8.82;1.27;;;;;;;16.72;72.82;98316.22;6118162;23;20044;-91
2023/10/21 11:26:49;;;;;;;1.55;0.68;;;;;;;16.75;71.81;98331.06;6094693;23;20029;-90
2023/10/21 11:29:17;;;;;;;2.08;0.68;;;;;;;16.75;70.74;98329.19;6094642;23;20458;-91
2023/10/21 11:31:44;;;;;;;3.20;0.80;;;;;;;16.78;70.76;98331.47;6095139;23;20021;-90
2023/10/21 11:34:16;;;;;;;2.20;0.60;;;;;;;16.82;70.07;98327.34;6096424;23;20045;-85
2023/10/21 11:36:44;;;;;;;1.27;0.60;;;;;;;16.85;70.31;98323.41;6095307;23;20445;-89
2023/10/21 11:39:14;;;;;;;1.52;0.60;;;;;;;16.89;69.94;98319.25;6073127;23;20097;-86
2023/10/21 11:41:52;;;;;;;2.35;0.70;;;;;;;16.93;69.27;98320.47;6121573;23;20104;-86